createdAt,value
2022-09-02T00:01:02.295Z,34.56
2022-09-02T00:03:35.245Z,34.87
2022-09-02T00:06:02.941Z,34.84
2022-09-02T00:08:33.468Z,34.93
2022-09-02T00:11:01.162Z,35.15
2022-09-02T00:13:33.581Z,35.22
2022-09-02T00:16:00.262Z,35.09
2022-09-02T00:18:27.231Z,35.17
2022-09-02T00:20:55.488Z,35.15
2022-09-02T00:23:27.338Z,34.98
2022-09-02T00:25:54.319Z,35.21
2022-09-02T00:28:20.956Z,35.39
2022-09-02T00:30:48.353Z,35.43
2022-09-02T00:33:19.320Z,35.49
2022-09-02T00:35:45.860Z,35.46
2022-09-02T00:38:12.973Z,35.41
2022-09-02T00:40:45.003Z,35.50
2022-09-02T00:43:19.165Z,35.36
2022-09-02T00:45:45.704Z,35.94
2022-09-02T00:48:12.323Z,35.59
2022-09-02T00:50:39.089Z,35.75
2022-09-02T00:53:10.262Z,36.08
2022-09-02T00:55:50.965Z,35.83
2022-09-02T00:58:25.861Z,36.20
2022-09-02T01:00:57.594Z,36.22
2022-09-02T01:03:29.637Z,36.27
2022-09-02T01:05:57.621Z,35.90
2022-09-02T01:08:28.909Z,36.21
2022-09-02T01:10:56.831Z,36.20
2022-09-02T01:13:28.534Z,36.53
2022-09-02T01:16:04.239Z,36.36
2022-09-02T01:18:31.235Z,36.26
2022-09-02T01:21:00.424Z,36.56
2022-09-02T01:23:31.127Z,36.49
2022-09-02T01:26:02.057Z,36.36
2022-09-02T01:28:28.619Z,36.46
2022-09-02T01:30:56.124Z,36.33
2022-09-02T01:33:27.772Z,36.73
2022-09-02T01:35:55.129Z,36.52
2022-09-02T01:38:23.271Z,37.05
2022-09-02T01:40:49.965Z,36.85
2022-09-02T01:43:24.089Z,36.77
2022-09-02T01:45:53.979Z,36.67
2022-09-02T01:48:22.724Z,36.87
2022-09-02T01:50:58.726Z,36.96
2022-09-02T01:53:29.104Z,37.06
2022-09-02T01:55:56.811Z,37.10
2022-09-02T01:58:23.820Z,36.97
2022-09-02T02:00:51.368Z,36.94
2022-09-02T02:03:18.313Z,37.50
2022-09-02T02:05:44.992Z,37.45
2022-09-02T02:08:15.143Z,37.23
2022-09-02T02:10:43.000Z,37.40
2022-09-02T02:13:19.094Z,37.11
2022-09-02T02:15:45.935Z,37.51
2022-09-02T02:18:12.790Z,37.60
2022-09-02T02:20:39.402Z,37.82
2022-09-02T02:23:06.845Z,37.83
2022-09-02T02:25:35.293Z,37.58
2022-09-02T02:28:02.455Z,37.73
2022-09-02T02:30:30.034Z,37.74
2022-09-02T02:32:57.517Z,37.81
2022-09-02T02:35:25.714Z,38.46
2022-09-02T02:37:52.470Z,38.09
2022-09-02T02:40:22.159Z,38.07
2022-09-02T02:42:49.838Z,38.05
2022-09-02T02:45:20.527Z,38.20
2022-09-02T02:47:47.192Z,37.91
2022-09-02T02:50:18.076Z,38.37
2022-09-02T02:52:47.138Z,38.35
2022-09-02T02:55:15.366Z,38.66
2022-09-02T02:57:43.674Z,38.36
2022-09-02T03:00:18.519Z,38.72
2022-09-02T03:02:47.218Z,38.47
2022-09-02T03:05:16.377Z,38.96
2022-09-02T03:07:42.952Z,38.77
2022-09-02T03:10:13.023Z,38.64
2022-09-02T03:12:41.548Z,38.97
2022-09-02T03:15:12.132Z,38.79
2022-09-02T03:17:39.857Z,39.15
2022-09-02T03:20:07.906Z,38.78
2022-09-02T03:22:40.107Z,39.34
2022-09-02T03:25:09.517Z,39.12
2022-09-02T03:27:40.408Z,39.13
2022-09-02T03:30:13.841Z,39.28
2022-09-02T03:32:40.621Z,39.05
2022-09-02T03:35:12.887Z,39.57
2022-09-02T03:37:39.740Z,39.24
2022-09-02T03:40:11.584Z,39.24
2022-09-02T03:42:38.675Z,39.42
2022-09-02T03:45:12.858Z,39.55
2022-09-02T03:47:47.243Z,39.73
2022-09-02T03:50:13.801Z,39.76
2022-09-02T03:52:40.394Z,39.77
2022-09-02T03:55:11.721Z,39.96
2022-09-02T03:57:38.278Z,40.07
2022-09-02T04:00:08.330Z,39.95
2022-09-02T04:02:41.908Z,40.00
2022-09-02T04:05:15.796Z,39.84
2022-09-02T04:07:46.929Z,40.01
2022-09-02T04:10:15.008Z,40.19
2022-09-02T04:12:41.818Z,39.89
2022-09-02T04:15:11.515Z,40.07
2022-09-02T04:17:40.326Z,40.11
2022-09-02T04:20:11.073Z,40.30
2022-09-02T04:22:37.665Z,40.35
2022-09-02T04:25:05.826Z,39.88
2022-09-02T04:27:34.533Z,39.90
2022-09-02T04:30:01.853Z,40.16
2022-09-02T04:32:34.779Z,40.29
2022-09-02T04:35:06.482Z,40.16
2022-09-02T04:37:33.879Z,40.19
2022-09-02T04:40:00.650Z,40.28
2022-09-02T04:42:27.699Z,40.04
2022-09-02T04:44:57.773Z,39.92
2022-09-02T04:47:25.326Z,40.29
2022-09-02T04:49:52.341Z,40.15
2022-09-02T04:52:20.809Z,40.28
2022-09-02T04:54:48.527Z,40.19
2022-09-02T04:57:15.314Z,39.96
2022-09-02T04:59:42.369Z,40.13
2022-09-02T05:02:12.046Z,40.39
2022-09-02T05:04:38.909Z,40.23
2022-09-02T05:07:11.877Z,40.39
2022-09-02T05:09:44.359Z,40.25
2022-09-02T05:12:11.567Z,40.02
2022-09-02T05:14:48.845Z,40.18
2022-09-02T05:17:17.197Z,40.12
2022-09-02T05:19:45.183Z,40.19
2022-09-02T05:22:13.766Z,40.40
2022-09-02T05:24:44.311Z,40.42
2022-09-02T05:27:16.101Z,40.25
2022-09-02T05:29:45.452Z,40.31
2022-09-02T05:32:13.406Z,40.12
2022-09-02T05:34:42.161Z,40.27
2022-09-02T05:37:08.771Z,40.38
2022-09-02T05:39:36.798Z,39.89
2022-09-02T05:42:05.674Z,40.13
2022-09-02T05:44:35.986Z,39.74
2022-09-02T05:47:04.181Z,39.93
2022-09-02T05:49:31.274Z,39.91
2022-09-02T05:52:04.935Z,39.81
2022-09-02T05:54:41.118Z,39.73
2022-09-02T05:57:14.058Z,39.87
2022-09-02T05:59:58.878Z,39.80
2022-09-02T06:02:40.192Z,40.17
2022-09-02T06:05:12.031Z,39.96
2022-09-02T06:07:42.325Z,40.04
2022-09-02T06:10:08.880Z,39.80
2022-09-02T06:12:39.441Z,39.77
2022-09-02T06:15:10.538Z,39.91
2022-09-02T06:17:39.916Z,40.09
2022-09-02T06:20:08.343Z,39.68
2022-09-02T06:22:36.671Z,39.58
2022-09-02T06:25:05.237Z,40.09
2022-09-02T06:27:31.920Z,39.94
2022-09-02T06:30:00.766Z,40.14
2022-09-02T06:32:28.661Z,40.06
2022-09-02T06:35:01.972Z,40.16
2022-09-02T06:37:33.046Z,39.97
2022-09-02T06:39:59.677Z,39.79
2022-09-02T06:42:28.393Z,39.74
2022-09-02T06:45:20.336Z,39.74
2022-09-02T06:47:48.101Z,39.96
2022-09-02T06:50:15.581Z,40.03
2022-09-02T06:52:42.735Z,39.68
2022-09-02T06:55:12.065Z,40.17
2022-09-02T06:57:39.472Z,39.66
2022-09-02T07:00:10.874Z,39.84
2022-09-02T07:02:38.376Z,39.83
2022-09-02T07:05:15.126Z,39.89
2022-09-02T07:07:45.970Z,39.59
2022-09-02T07:10:15.171Z,39.71
2022-09-02T07:12:45.826Z,39.71
2022-09-02T07:15:16.968Z,39.80
2022-09-02T07:17:44.157Z,39.84
2022-09-02T07:20:24.316Z,39.33
2022-09-02T07:22:56.107Z,39.55
2022-09-02T07:25:26.264Z,39.45
2022-09-02T07:27:54.551Z,39.62
2022-09-02T07:30:22.057Z,39.59
2022-09-02T07:32:53.904Z,39.56
2022-09-02T07:35:31.118Z,39.27
2022-09-02T07:37:58.575Z,39.15
2022-09-02T07:40:26.289Z,39.46
2022-09-02T07:42:54.496Z,39.11
2022-09-02T07:45:23.798Z,39.36
2022-09-02T07:47:50.910Z,39.20
2022-09-02T07:50:21.306Z,39.25
2022-09-02T07:52:58.400Z,38.73
2022-09-02T07:55:34.983Z,38.81
2022-09-02T07:58:04.811Z,38.93
2022-09-02T08:00:32.258Z,38.52
2022-09-02T08:05:58.123Z,38.98
2022-09-02T08:08:27.498Z,38.70
2022-09-02T08:10:55.162Z,38.80
2022-09-02T08:13:26.779Z,38.53
2022-09-02T08:15:54.353Z,38.42
2022-09-02T08:18:22.670Z,38.40
2022-09-02T08:20:49.395Z,38.04
2022-09-02T08:23:35.616Z,37.69
2022-09-02T08:26:05.389Z,37.94
2022-09-02T08:28:32.155Z,37.63
2022-09-02T08:30:59.474Z,37.83
2022-09-02T08:33:28.777Z,37.29
2022-09-02T08:35:55.318Z,37.59
2022-09-02T08:38:22.348Z,37.30
2022-09-02T08:40:50.953Z,37.08
2022-09-02T08:43:27.708Z,37.19
2022-09-02T08:45:58.679Z,36.89
2022-09-02T08:48:33.738Z,36.56
2022-09-02T08:51:27.009Z,36.63
2022-09-02T08:54:06.019Z,36.38
2022-09-02T08:56:32.586Z,35.98
2022-09-02T08:59:03.601Z,35.97
2022-09-02T09:01:32.893Z,35.83
2022-09-02T09:04:15.889Z,35.47
2022-09-02T09:06:48.336Z,35.35
2022-09-02T09:09:26.907Z,35.53
2022-09-02T09:12:08.934Z,35.65
2022-09-02T09:14:58.306Z,34.96
2022-09-02T09:17:47.463Z,34.89
2022-09-02T09:20:24.385Z,34.56
2022-09-02T09:22:56.660Z,34.67
2022-09-02T09:25:29.675Z,34.24
2022-09-02T09:27:58.070Z,33.82
2022-09-02T09:30:25.113Z,34.07
2022-09-02T09:32:57.547Z,33.58
2022-09-02T09:35:26.491Z,33.52
2022-09-02T09:37:56.528Z,33.69
2022-09-02T09:40:32.747Z,33.22
2022-09-02T09:43:30.876Z,33.27
2022-09-02T09:45:57.390Z,32.95
2022-09-02T09:48:31.446Z,32.97
2022-09-02T09:50:58.111Z,32.64
2022-09-02T09:53:25.814Z,32.57
2022-09-02T09:55:52.508Z,32.47
2022-09-02T09:58:20.617Z,32.26
2022-09-02T10:00:47.348Z,32.14
2022-09-02T10:03:32.832Z,32.03
2022-09-02T10:06:17.981Z,31.81
2022-09-02T10:09:00.472Z,31.57
2022-09-02T10:11:36.789Z,31.66
2022-09-02T10:14:11.849Z,31.51
2022-09-02T10:17:09.741Z,31.50
2022-09-02T10:19:47.701Z,31.15
2022-09-02T10:22:44.770Z,31.21
2022-09-02T10:25:41.705Z,30.95
2022-09-02T10:29:01.961Z,31.00
2022-09-02T10:32:03.901Z,30.53
2022-09-02T10:34:46.285Z,30.24
2022-09-02T10:37:24.537Z,30.15
2022-09-02T10:40:08.975Z,30.35
2022-09-02T10:42:44.589Z,29.71
2022-09-02T10:45:20.231Z,29.24
2022-09-02T10:48:08.221Z,29.23
2022-09-02T10:50:48.120Z,28.96
2022-09-02T10:54:04.956Z,28.66
2022-09-02T10:56:38.870Z,28.85
2022-09-02T10:59:13.498Z,28.58
2022-09-02T11:02:02.986Z,28.04
2022-09-02T11:04:42.017Z,27.75
2022-09-02T11:07:14.208Z,27.43
2022-09-02T11:09:46.094Z,27.36
2022-09-02T11:12:19.722Z,27.28
2022-09-02T11:14:58.494Z,26.59
2022-09-02T11:17:36.071Z,26.47
2022-09-02T11:20:21.286Z,26.08
2022-09-02T11:23:11.033Z,26.06
2022-09-02T11:26:40.491Z,25.89
2022-09-02T11:29:14.395Z,26.00
2022-09-02T11:31:49.291Z,25.83
2022-09-02T11:34:36.910Z,25.65
2022-09-02T11:37:10.736Z,25.31
2022-09-02T11:40:11.503Z,25.27
2022-09-02T11:42:52.988Z,25.26
2022-09-02T11:45:39.489Z,25.10
2022-09-02T11:48:22.762Z,25.07
2022-09-02T11:51:28.030Z,24.48
2022-09-02T11:54:01.074Z,24.67
2022-09-02T11:56:35.538Z,24.45
2022-09-02T11:59:03.700Z,24.92
2022-09-02T12:01:33.311Z,24.55
2022-09-02T12:07:19.710Z,23.94
2022-09-02T12:09:54.993Z,23.93
2022-09-02T12:12:36.541Z,23.63
2022-09-02T12:15:13.131Z,23.67
2022-09-02T12:17:51.889Z,23.28
2022-09-02T12:20:36.456Z,23.31
2022-09-02T12:23:03.797Z,23.57
2022-09-02T12:25:33.980Z,23.54
2022-09-02T12:28:24.310Z,23.46
2022-09-02T12:30:55.735Z,23.17
2022-09-02T12:33:53.643Z,22.70
2022-09-02T12:36:42.298Z,22.47
2022-09-02T12:39:30.627Z,22.53
2022-09-02T12:42:07.898Z,22.27
2022-09-02T12:44:58.819Z,21.98
2022-09-02T12:47:26.485Z,21.96
2022-09-02T12:50:10.594Z,21.82
2022-09-02T12:52:54.063Z,21.75
2022-09-02T12:55:26.032Z,21.78
2022-09-02T12:58:06.025Z,21.40
2022-09-02T13:00:54.289Z,21.34
2022-09-02T13:03:39.242Z,21.35
2022-09-02T13:06:14.563Z,21.49
2022-09-02T13:08:58.000Z,21.35
2022-09-02T13:11:52.094Z,20.92
2022-09-02T13:14:53.850Z,20.94
2022-09-02T13:17:44.100Z,20.86
2022-09-02T13:20:29.380Z,20.47
2022-09-02T13:23:35.200Z,20.73
2022-09-02T13:26:49.728Z,20.63
2022-09-02T13:29:36.151Z,20.87
2022-09-02T13:32:23.355Z,20.66
2022-09-02T13:34:55.186Z,20.83
2022-09-02T13:37:38.574Z,20.23
2022-09-02T13:40:16.670Z,19.97
2022-09-02T13:42:49.255Z,20.08
2022-09-02T13:45:25.907Z,19.94
2022-09-02T13:47:58.655Z,20.00
2022-09-02T13:50:29.991Z,19.71
2022-09-02T13:55:57.159Z,19.70
2022-09-02T13:58:34.628Z,19.99
2022-09-02T14:01:33.166Z,19.88
2022-09-02T14:04:16.510Z,19.78
2022-09-02T14:06:46.406Z,19.72
2022-09-02T14:09:25.912Z,19.72
2022-09-02T14:11:53.876Z,19.97
2022-09-02T14:14:25.929Z,19.57
2022-09-02T14:16:52.886Z,19.77
2022-09-02T14:19:22.677Z,19.59
2022-09-02T14:21:57.791Z,19.74
2022-09-02T14:24:37.336Z,19.53
2022-09-02T14:27:04.106Z,19.50
2022-09-02T14:29:33.744Z,19.55
2022-09-02T14:32:11.996Z,19.39
2022-09-02T14:34:45.366Z,19.16
2022-09-02T14:37:21.416Z,19.48
2022-09-02T14:40:12.613Z,19.69
2022-09-02T14:42:45.267Z,19.20
2022-09-02T14:45:13.533Z,19.51
2022-09-02T14:47:41.246Z,19.26
2022-09-02T14:50:15.389Z,19.31
2022-09-02T14:52:48.257Z,19.32
2022-09-02T14:55:47.199Z,19.22
2022-09-02T14:58:15.195Z,19.35
2022-09-02T15:00:55.567Z,19.19
2022-09-02T15:03:24.153Z,19.36
2022-09-02T15:05:52.240Z,19.19
2022-09-02T15:08:18.802Z,19.03
2022-09-02T15:10:46.010Z,19.48
2022-09-02T15:13:32.681Z,19.34
2022-09-02T15:15:59.558Z,19.21
2022-09-02T15:18:26.390Z,19.27
2022-09-02T15:20:54.087Z,19.55
2022-09-02T15:23:24.149Z,19.81
2022-09-02T15:25:52.855Z,19.58
2022-09-02T15:28:19.341Z,19.66
2022-09-02T15:30:45.922Z,19.61
2022-09-02T15:33:19.947Z,19.51
2022-09-02T15:35:47.393Z,19.54
2022-09-02T15:38:13.910Z,19.45
2022-09-02T15:40:40.469Z,19.64
2022-09-02T15:43:06.985Z,19.71
2022-09-02T15:45:33.782Z,19.65
2022-09-02T15:48:00.351Z,19.90
2022-09-02T15:50:31.658Z,19.91
2022-09-02T15:52:58.218Z,20.05
2022-09-02T15:55:29.240Z,19.86
2022-09-02T15:57:56.494Z,19.93
2022-09-02T16:00:23.363Z,19.96
2022-09-02T16:02:54.691Z,20.12
2022-09-02T16:05:25.559Z,20.25
2022-09-02T16:07:54.744Z,20.21
2022-09-02T16:10:21.285Z,20.38
2022-09-02T16:12:48.373Z,20.33
2022-09-02T16:15:20.106Z,20.48
2022-09-02T16:17:46.611Z,20.86
2022-09-02T16:20:14.164Z,20.63
2022-09-02T16:22:42.627Z,20.59
2022-09-02T16:25:10.493Z,20.65
2022-09-02T16:27:51.967Z,20.58
2022-09-02T16:30:19.315Z,20.56
2022-09-02T16:32:46.495Z,20.80
2022-09-02T16:35:13.552Z,20.92
2022-09-02T16:37:40.438Z,20.92
2022-09-02T16:40:07.942Z,21.05
2022-09-02T16:42:38.074Z,21.22
2022-09-02T16:45:05.591Z,21.06
2022-09-02T16:47:32.333Z,21.25
2022-09-02T16:49:58.893Z,21.27
2022-09-02T16:52:25.376Z,21.39
2022-09-02T16:54:53.667Z,21.46
2022-09-02T16:57:20.269Z,21.69
2022-09-02T16:59:46.841Z,21.36
2022-09-02T17:02:13.437Z,21.49
2022-09-02T17:04:41.319Z,21.65
2022-09-02T17:07:08.032Z,21.50
2022-09-02T17:09:35.062Z,21.38
2022-09-02T17:12:01.661Z,21.70
2022-09-02T17:14:29.615Z,21.56
2022-09-02T17:16:56.513Z,21.72
2022-09-02T17:19:27.187Z,21.71
2022-09-02T17:21:56.472Z,21.59
2022-09-02T17:24:30.799Z,21.79
2022-09-02T17:26:57.668Z,21.90
2022-09-02T17:32:16.366Z,22.02
2022-09-02T17:34:44.817Z,22.24
2022-09-02T17:37:11.501Z,22.15
2022-09-02T17:39:38.067Z,22.19
2022-09-02T17:42:06.459Z,22.15
2022-09-02T17:44:38.325Z,22.42
2022-09-02T17:47:07.978Z,22.52
2022-09-02T17:49:36.730Z,22.53
2022-09-02T17:52:08.145Z,22.64
2022-09-02T17:55:00.357Z,22.79
2022-09-02T17:57:48.703Z,22.91
2022-09-02T18:00:22.227Z,22.96
2022-09-02T18:03:28.521Z,23.10
2022-09-02T18:06:01.929Z,23.24
2022-09-02T18:08:33.003Z,23.09
2022-09-02T18:11:05.269Z,23.27
2022-09-02T18:13:54.264Z,23.37
2022-09-02T18:16:28.420Z,23.39
2022-09-02T18:19:13.163Z,23.72
2022-09-02T18:21:53.119Z,23.83
2022-09-02T18:24:40.881Z,24.05
2022-09-02T18:27:20.019Z,24.03
2022-09-02T18:30:02.135Z,23.98
2022-09-02T18:32:53.247Z,24.13
2022-09-02T18:35:43.429Z,24.23
2022-09-02T18:38:10.026Z,24.21
2022-09-02T18:40:44.050Z,24.57
2022-09-02T18:43:36.641Z,24.46
2022-09-02T18:46:05.077Z,24.54
2022-09-02T18:48:35.183Z,24.58
2022-09-02T18:51:12.983Z,24.67
2022-09-02T18:53:51.341Z,24.90
2022-09-02T18:56:22.473Z,24.98
2022-09-02T18:58:57.643Z,24.89
2022-09-02T19:01:25.304Z,24.80
2022-09-02T19:03:59.301Z,25.16
2022-09-02T19:06:29.174Z,25.34
2022-09-02T19:08:59.324Z,25.31
2022-09-02T19:11:27.220Z,25.47
2022-09-02T19:14:13.386Z,25.44
2022-09-02T19:16:39.993Z,25.76
2022-09-02T19:19:06.630Z,26.05
2022-09-02T19:21:43.434Z,25.82
2022-09-02T19:24:33.983Z,25.92
2022-09-02T19:27:05.859Z,25.92
2022-09-02T19:29:41.158Z,26.27
2022-09-02T19:32:08.315Z,26.11
2022-09-02T19:34:41.996Z,26.49
2022-09-02T19:37:11.662Z,26.31
2022-09-02T19:39:38.347Z,26.41
2022-09-02T19:42:09.139Z,26.64
2022-09-02T19:44:40.039Z,26.41
2022-09-02T19:49:53.890Z,26.83
2022-09-02T19:52:21.440Z,26.99
2022-09-02T19:54:49.693Z,26.83
2022-09-02T19:57:16.245Z,27.04
2022-09-02T19:59:42.736Z,27.28
2022-09-02T20:02:09.306Z,27.23
2022-09-02T20:04:37.989Z,27.31
2022-09-02T20:07:04.535Z,27.40
2022-09-02T20:09:31.012Z,27.62
2022-09-02T20:11:58.468Z,27.44
2022-09-02T20:14:26.241Z,27.26
2022-09-02T20:17:00.118Z,27.29
2022-09-02T20:19:26.926Z,27.68
2022-09-02T20:21:53.462Z,27.41
2022-09-02T20:24:31.177Z,27.68
2022-09-02T20:27:20.285Z,27.49
2022-09-02T20:29:59.000Z,27.99
2022-09-02T20:32:42.329Z,27.80
2022-09-02T20:35:40.018Z,28.08
2022-09-02T20:38:26.037Z,27.87
2022-09-02T20:41:01.304Z,27.96
2022-09-02T20:43:41.568Z,27.82
2022-09-02T20:46:13.974Z,27.89
2022-09-02T20:48:40.549Z,27.85
2022-09-02T20:51:32.345Z,28.03
2022-09-02T20:54:36.115Z,28.27
2022-09-02T20:57:36.875Z,28.10
2022-09-02T21:00:12.431Z,28.26
2022-09-02T21:03:00.896Z,28.16
2022-09-02T21:05:42.237Z,28.53
2022-09-02T21:08:22.131Z,28.22
2022-09-02T21:10:53.954Z,28.74
2022-09-02T21:13:40.232Z,28.60
2022-09-02T21:16:19.677Z,28.59
2022-09-02T21:19:14.779Z,28.86
2022-09-02T21:21:49.200Z,28.82
2022-09-02T21:24:24.754Z,28.99
2022-09-02T21:26:58.480Z,29.07
2022-09-02T21:29:30.822Z,29.03
2022-09-02T21:32:06.047Z,29.47
2022-09-02T21:34:43.043Z,29.52
2022-09-02T21:37:12.267Z,29.30
2022-09-02T21:39:44.939Z,29.59
2022-09-02T21:42:23.732Z,29.52
2022-09-02T21:45:08.877Z,29.53
2022-09-02T21:47:42.026Z,29.92
2022-09-02T21:50:28.922Z,30.01
2022-09-02T21:53:19.315Z,30.09
2022-09-02T21:55:52.520Z,29.95
2022-09-02T21:58:30.325Z,30.04
2022-09-02T22:01:12.139Z,30.07
2022-09-02T22:03:50.728Z,30.12
2022-09-02T22:06:36.634Z,30.19
2022-09-02T22:09:11.461Z,30.40
2022-09-02T22:11:43.752Z,30.44
2022-09-02T22:14:18.979Z,30.63
2022-09-02T22:16:45.994Z,30.56
2022-09-02T22:19:13.504Z,30.28
2022-09-02T22:21:49.081Z,30.25
2022-09-02T22:24:37.200Z,30.81
2022-09-02T22:27:25.516Z,30.76
2022-09-02T22:30:03.005Z,31.08
2022-09-02T22:32:35.703Z,30.84
2022-09-02T22:35:09.732Z,30.94
2022-09-02T22:37:58.903Z,31.09
2022-09-02T22:40:32.354Z,31.18
2022-09-02T22:43:07.034Z,31.11
2022-09-02T22:45:57.538Z,31.34
2022-09-02T22:48:52.464Z,31.18
2022-09-02T22:51:45.682Z,31.27
2022-09-02T22:54:12.396Z,31.61
2022-09-02T22:57:08.237Z,31.50
2022-09-02T22:59:48.716Z,31.74
2022-09-02T23:02:38.261Z,31.89
2022-09-02T23:05:45.265Z,31.92
2022-09-02T23:08:14.121Z,32.17
2022-09-02T23:10:50.853Z,32.37
2022-09-02T23:13:43.773Z,32.27
2022-09-02T23:16:28.943Z,32.47
2022-09-02T23:19:22.180Z,32.20
2022-09-02T23:22:10.039Z,32.34
2022-09-02T23:25:11.028Z,32.66
2022-09-02T23:27:44.287Z,32.55
2022-09-02T23:30:12.204Z,32.43
2022-09-02T23:33:02.147Z,32.59
2022-09-02T23:35:40.834Z,32.87
2022-09-02T23:38:22.287Z,32.81
2022-09-02T23:41:06.473Z,32.91
2022-09-02T23:43:34.725Z,32.89
2022-09-02T23:46:20.592Z,32.81
2022-09-02T23:49:05.382Z,33.34
2022-09-02T23:52:07.250Z,33.00
2022-09-02T23:54:47.511Z,33.04
2022-09-02T23:57:30.041Z,33.42
